createdAt,value
2023-03-26T00:02:04.555Z,12.10
2023-03-26T00:04:34.608Z,12.30
2023-03-26T00:07:03.128Z,12.50
2023-03-26T00:09:31.258Z,12.20
2023-03-26T00:11:59.305Z,12.10
2023-03-26T00:14:29.201Z,12.10
2023-03-26T00:16:57.341Z,12.10
2023-03-26T00:19:25.407Z,12.20
2023-03-26T00:21:57.786Z,11.90
2023-03-26T00:24:29.918Z,11.80
2023-03-26T00:26:59.764Z,11.60
2023-03-26T00:29:28.802Z,11.70
2023-03-26T00:31:57.023Z,11.90
2023-03-26T00:34:25.077Z,12.10
2023-03-26T00:36:55.203Z,12.10
2023-03-26T00:39:24.114Z,12.00
2023-03-26T00:41:54.651Z,12.00
2023-03-26T00:44:23.037Z,12.20
2023-03-26T00:46:51.306Z,12.30
2023-03-26T00:49:19.329Z,12.20
2023-03-26T00:51:47.402Z,12.00
2023-03-26T00:54:17.402Z,11.70
2023-03-26T00:56:45.526Z,11.40
2023-03-26T00:59:13.541Z,11.80
2023-03-26T01:01:41.798Z,11.50
2023-03-26T01:04:24.191Z,11.20
2023-03-26T01:06:52.426Z,10.40
2023-03-26T01:09:22.886Z,10.70
2023-03-26T01:11:51.013Z,11.30
2023-03-26T01:14:21.290Z,11.60
2023-03-26T01:16:52.301Z,11.70
2023-03-26T01:19:22.983Z,11.20
2023-03-26T01:21:51.018Z,11.30
2023-03-26T01:24:20.796Z,11.30
2023-03-26T01:27:01.625Z,11.00
2023-03-26T01:29:33.599Z,10.80
2023-03-26T01:32:16.261Z,11.50
2023-03-26T01:34:50.700Z,11.70
2023-03-26T01:37:22.035Z,11.60
2023-03-26T01:39:54.496Z,11.30
2023-03-26T01:42:27.003Z,11.50
2023-03-26T01:44:58.165Z,11.40
2023-03-26T01:47:26.401Z,11.70
2023-03-26T01:49:54.456Z,11.70
2023-03-26T01:52:25.296Z,11.70
2023-03-26T01:54:55.087Z,11.70
2023-03-26T01:57:29.182Z,11.80
2023-03-26T02:00:12.027Z,11.90
2023-03-26T02:02:45.830Z,12.00
2023-03-26T02:05:16.544Z,12.00
2023-03-26T02:07:47.927Z,12.20
2023-03-26T02:10:18.979Z,12.00
2023-03-26T02:12:47.098Z,12.10
2023-03-26T02:15:15.713Z,12.10
2023-03-26T02:17:43.793Z,12.20
2023-03-26T02:20:14.301Z,12.10
2023-03-26T02:22:45.994Z,12.20
2023-03-26T02:25:15.418Z,12.20
2023-03-26T02:27:46.140Z,11.90
2023-03-26T02:30:15.544Z,11.80
2023-03-26T02:32:44.826Z,11.90
2023-03-26T02:35:13.490Z,12.00
2023-03-26T02:37:42.236Z,12.00
2023-03-26T02:40:11.974Z,11.90
2023-03-26T02:42:40.126Z,11.70
2023-03-26T02:45:09.918Z,11.50
2023-03-26T02:47:38.035Z,11.20
2023-03-26T02:50:06.828Z,11.20
2023-03-26T02:52:36.140Z,11.70
2023-03-26T02:55:04.534Z,11.90
2023-03-26T02:57:32.674Z,11.60
2023-03-26T03:00:05.026Z,11.50
2023-03-26T03:02:34.625Z,11.10
2023-03-26T03:05:02.803Z,11.50
2023-03-26T03:07:30.898Z,11.60
2023-03-26T03:10:02.387Z,11.70
2023-03-26T03:12:30.522Z,11.40
2023-03-26T03:14:58.523Z,11.70
2023-03-26T03:17:26.702Z,11.50
2023-03-26T03:19:56.441Z,11.40
2023-03-26T03:22:24.569Z,11.40
2023-03-26T03:24:53.390Z,11.30
2023-03-26T03:27:22.349Z,11.30
2023-03-26T03:29:53.564Z,11.10
2023-03-26T03:32:22.699Z,11.20
2023-03-26T03:34:51.838Z,11.40
2023-03-26T03:37:21.342Z,11.00
2023-03-26T03:39:49.406Z,11.00
2023-03-26T03:42:17.418Z,11.20
2023-03-26T03:44:45.481Z,11.00
2023-03-26T03:47:13.876Z,11.30
2023-03-26T03:49:41.939Z,11.30
2023-03-26T03:52:10.092Z,11.50
2023-03-26T03:54:39.491Z,11.30
2023-03-26T03:57:07.584Z,11.00
2023-03-26T03:59:35.656Z,11.00
2023-03-26T04:02:03.936Z,10.70
2023-03-26T04:04:32.838Z,10.70
2023-03-26T04:07:00.985Z,10.40
2023-03-26T04:09:28.993Z,10.40
2023-03-26T04:11:58.384Z,10.40
2023-03-26T04:14:26.483Z,10.80
2023-03-26T04:16:55.029Z,10.80
2023-03-26T04:19:23.039Z,11.00
2023-03-26T04:21:51.097Z,10.80
2023-03-26T04:24:19.725Z,10.50
2023-03-26T04:26:48.187Z,10.30
2023-03-26T04:29:19.181Z,10.40
2023-03-26T04:31:47.327Z,10.50
2023-03-26T04:34:18.696Z,10.70
2023-03-26T04:36:46.827Z,10.70
2023-03-26T04:39:14.828Z,10.80
2023-03-26T04:41:42.884Z,10.70
2023-03-26T04:44:11.860Z,11.30
2023-03-26T04:46:43.733Z,11.40
2023-03-26T04:49:11.853Z,11.00
2023-03-26T04:51:41.857Z,11.10
2023-03-26T04:54:12.672Z,10.80
2023-03-26T04:56:43.449Z,10.70
2023-03-26T04:59:14.858Z,11.00
2023-03-26T05:01:46.000Z,11.20
2023-03-26T05:04:14.298Z,11.20
2023-03-26T05:06:42.966Z,11.20
2023-03-26T05:09:11.243Z,11.00
2023-03-26T05:11:39.294Z,11.10
2023-03-26T05:14:07.314Z,11.10
2023-03-26T05:16:35.963Z,11.20
2023-03-26T05:19:05.419Z,11.10
2023-03-26T05:21:33.580Z,11.00
2023-03-26T05:24:02.113Z,11.20
2023-03-26T05:26:30.644Z,11.30
2023-03-26T05:28:58.656Z,11.40
2023-03-26T05:31:28.081Z,10.80
2023-03-26T05:33:56.936Z,10.60
2023-03-26T05:36:28.361Z,10.30
2023-03-26T05:38:56.485Z,10.30
2023-03-26T05:41:24.523Z,10.20
2023-03-26T05:43:52.583Z,10.10
2023-03-26T05:46:23.167Z,10.00
2023-03-26T05:48:52.094Z,10.00
2023-03-26T05:51:20.856Z,10.50
2023-03-26T05:53:50.483Z,10.00
2023-03-26T05:56:18.541Z,10.30
2023-03-26T05:58:47.619Z,10.70
2023-03-26T06:01:18.590Z,10.40
2023-03-26T06:03:47.108Z,10.10
2023-03-26T06:06:16.534Z,10.20
2023-03-26T06:08:46.867Z,10.00
2023-03-26T06:11:16.607Z,10.20
2023-03-26T06:13:44.782Z,10.00
2023-03-26T06:16:27.292Z,10.30
2023-03-26T06:18:57.492Z,10.30
2023-03-26T06:21:25.866Z,10.50
2023-03-26T06:23:53.973Z,10.90
2023-03-26T06:26:23.412Z,11.00
2023-03-26T06:28:51.493Z,11.20
2023-03-26T06:31:20.306Z,11.10
2023-03-26T06:33:48.890Z,11.10
2023-03-26T06:36:17.123Z,10.90
2023-03-26T06:38:45.432Z,11.10
2023-03-26T06:41:21.427Z,11.30
2023-03-26T06:43:51.197Z,11.40
2023-03-26T06:46:21.467Z,11.50
2023-03-26T06:48:53.063Z,11.70
2023-03-26T06:51:21.974Z,11.50
2023-03-26T06:53:55.965Z,11.50
2023-03-26T06:56:24.193Z,11.40
2023-03-26T06:58:57.889Z,11.10
2023-03-26T07:01:31.959Z,11.00
2023-03-26T07:04:01.081Z,11.20
2023-03-26T07:06:31.426Z,11.30
2023-03-26T07:08:59.971Z,11.30
2023-03-26T07:11:29.441Z,11.20
2023-03-26T07:13:59.667Z,11.20
2023-03-26T07:16:28.127Z,11.70
2023-03-26T07:18:56.236Z,11.50
2023-03-26T07:21:24.991Z,11.50
2023-03-26T07:23:56.545Z,11.40
2023-03-26T07:26:28.480Z,11.40
2023-03-26T07:29:03.852Z,11.20
2023-03-26T07:31:36.104Z,11.30
2023-03-26T07:34:07.817Z,11.40
2023-03-26T07:36:37.223Z,11.50
2023-03-26T07:39:11.964Z,11.70
2023-03-26T07:41:52.137Z,11.70
2023-03-26T07:44:35.742Z,11.60
2023-03-26T07:47:04.990Z,11.50
2023-03-26T07:49:34.167Z,11.50
2023-03-26T07:52:02.995Z,11.40
2023-03-26T07:54:31.552Z,11.50
2023-03-26T07:57:00.851Z,11.30
2023-03-26T07:59:31.539Z,11.20
2023-03-26T08:02:42.470Z,11.30
2023-03-26T08:05:19.941Z,11.20
2023-03-26T08:07:57.507Z,11.30
2023-03-26T08:10:30.929Z,11.30
2023-03-26T08:13:04.729Z,11.20
2023-03-26T08:15:39.521Z,11.30
2023-03-26T08:18:17.812Z,11.40
2023-03-26T08:20:48.041Z,11.20
2023-03-26T08:23:21.112Z,11.50
2023-03-26T08:25:55.264Z,11.70
2023-03-26T08:28:43.052Z,11.70
2023-03-26T08:31:17.269Z,11.80
2023-03-26T08:33:46.565Z,12.30
2023-03-26T08:36:18.711Z,11.90
2023-03-26T08:38:50.845Z,11.80
2023-03-26T08:41:40.692Z,12.00
2023-03-26T08:44:32.124Z,11.50
2023-03-26T08:47:27.493Z,11.40
2023-03-26T08:50:17.436Z,11.70
2023-03-26T08:53:18.622Z,11.70
2023-03-26T08:55:53.697Z,11.30
2023-03-26T08:58:36.159Z,11.00
2023-03-26T09:01:52.293Z,11.20
2023-03-26T09:04:33.092Z,11.40
2023-03-26T09:07:18.946Z,11.40
2023-03-26T09:10:02.268Z,11.70
2023-03-26T09:12:56.762Z,11.50
2023-03-26T09:16:09.653Z,11.00
2023-03-26T09:19:01.013Z,10.70
2023-03-26T09:22:04.991Z,11.50
2023-03-26T09:25:07.773Z,12.00
2023-03-26T09:27:46.082Z,11.80
2023-03-26T09:30:36.373Z,12.00
2023-03-26T09:33:39.189Z,12.30
2023-03-26T09:36:20.006Z,12.30
2023-03-26T09:38:51.691Z,12.60
2023-03-26T09:41:27.416Z,12.70
2023-03-26T09:44:21.866Z,12.60
2023-03-26T09:46:56.641Z,12.40
2023-03-26T09:49:43.322Z,12.70
2023-03-26T09:52:22.383Z,12.90
2023-03-26T09:55:15.581Z,12.90
2023-03-26T09:57:59.357Z,12.40
2023-03-26T10:00:29.826Z,12.50
2023-03-26T10:03:16.377Z,12.70
2023-03-26T10:05:58.373Z,12.80
2023-03-26T10:08:53.530Z,13.00
2023-03-26T10:11:25.289Z,12.60
2023-03-26T10:14:01.347Z,12.40
2023-03-26T10:16:34.635Z,12.30
2023-03-26T10:19:09.923Z,12.70
2023-03-26T10:21:41.651Z,13.10
2023-03-26T10:24:14.982Z,14.40
2023-03-26T10:27:09.979Z,15.20
2023-03-26T10:29:53.901Z,15.30
2023-03-26T10:32:26.878Z,14.80
2023-03-26T10:35:08.318Z,15.90
2023-03-26T10:37:47.022Z,15.70
2023-03-26T10:40:25.017Z,15.80
2023-03-26T10:43:16.734Z,16.30
2023-03-26T10:45:59.145Z,16.70
2023-03-26T10:48:36.340Z,17.20
2023-03-26T10:51:34.851Z,17.60
2023-03-26T10:54:04.769Z,16.50
2023-03-26T10:56:37.364Z,16.00
2023-03-26T10:59:08.375Z,15.40
2023-03-26T11:01:43.578Z,15.70
2023-03-26T11:04:20.436Z,16.10
2023-03-26T11:06:52.050Z,16.00
2023-03-26T11:09:30.276Z,15.80
2023-03-26T11:12:01.376Z,16.10
2023-03-26T11:14:34.922Z,15.60
2023-03-26T11:17:14.830Z,15.60
2023-03-26T11:20:00.835Z,15.30
2023-03-26T11:22:32.475Z,15.20
2023-03-26T11:25:10.744Z,15.20
2023-03-26T11:27:48.322Z,15.10
2023-03-26T11:30:23.242Z,15.00
2023-03-26T11:32:55.134Z,15.10
2023-03-26T11:35:40.792Z,15.20
2023-03-26T11:38:12.977Z,15.20
2023-03-26T11:40:42.034Z,15.20
2023-03-26T11:43:12.879Z,15.80
2023-03-26T11:45:42.795Z,15.90
2023-03-26T11:48:16.412Z,16.30
2023-03-26T11:50:46.539Z,16.60
2023-03-26T11:53:16.389Z,16.20
2023-03-26T11:55:47.589Z,16.30
2023-03-26T11:58:28.003Z,16.80
2023-03-26T12:00:56.661Z,17.00
2023-03-26T12:03:26.395Z,16.70
2023-03-26T12:05:59.358Z,16.40
2023-03-26T12:08:32.550Z,16.80
2023-03-26T12:11:06.575Z,17.00
2023-03-26T12:13:37.358Z,16.80
2023-03-26T12:16:09.331Z,16.50
2023-03-26T12:18:39.966Z,16.90
2023-03-26T12:21:09.432Z,17.10
2023-03-26T12:23:58.945Z,17.00
2023-03-26T12:26:46.118Z,16.80
2023-03-26T12:29:15.710Z,16.30
2023-03-26T12:31:49.376Z,16.60
2023-03-26T12:34:19.983Z,16.60
2023-03-26T12:36:55.411Z,15.70
2023-03-26T12:40:07.066Z,16.50
2023-03-26T12:44:48.895Z,16.30
2023-03-26T12:45:16.636Z,16.80
2023-03-26T12:47:57.023Z,16.10
2023-03-26T12:50:38.514Z,16.30
2023-03-26T12:53:35.165Z,16.30
2023-03-26T12:56:17.704Z,16.50
2023-03-26T12:59:02.649Z,16.30
2023-03-26T13:01:50.889Z,16.40
2023-03-26T13:04:58.637Z,16.40
2023-03-26T13:07:45.645Z,16.60
2023-03-26T13:10:55.879Z,16.80
2023-03-26T13:13:56.489Z,16.50
2023-03-26T13:16:43.131Z,16.70
2023-03-26T13:19:13.161Z,16.80
2023-03-26T13:21:51.776Z,16.60
2023-03-26T13:24:28.788Z,16.70
2023-03-26T13:27:07.354Z,16.50
2023-03-26T13:29:39.952Z,16.70
2023-03-26T13:32:14.037Z,17.10
2023-03-26T13:34:51.017Z,16.90
2023-03-26T13:37:21.971Z,16.80
2023-03-26T13:40:01.754Z,16.50
2023-03-26T13:42:56.561Z,16.40
2023-03-26T13:45:33.800Z,17.00
2023-03-26T13:48:02.146Z,16.60
2023-03-26T13:50:42.610Z,16.90
2023-03-26T13:53:21.013Z,16.60
2023-03-26T13:55:59.200Z,16.60
2023-03-26T13:58:34.322Z,16.80
2023-03-26T14:01:07.328Z,16.60
2023-03-26T14:03:41.168Z,16.40
2023-03-26T14:06:15.121Z,16.40
2023-03-26T14:08:44.063Z,16.40
2023-03-26T14:11:15.658Z,16.20
2023-03-26T14:13:49.482Z,16.10
2023-03-26T14:16:18.810Z,16.20
2023-03-26T14:18:50.141Z,16.00
2023-03-26T14:21:36.629Z,16.20
2023-03-26T14:24:53.039Z,16.00
2023-03-26T14:27:42.441Z,15.80
2023-03-26T14:30:32.180Z,15.90
2023-03-26T14:33:07.889Z,15.60
2023-03-26T14:35:37.880Z,14.80
2023-03-26T14:38:33.120Z,14.40
2023-03-26T14:41:07.650Z,13.70
2023-03-26T14:43:47.231Z,13.60
2023-03-26T14:46:22.335Z,13.30
2023-03-26T14:49:22.844Z,13.30
2023-03-26T14:52:06.020Z,12.80
2023-03-26T14:54:36.128Z,12.70
2023-03-26T14:57:25.622Z,12.80
2023-03-26T15:00:31.507Z,12.20
2023-03-26T15:03:51.319Z,12.30
2023-03-26T15:07:15.506Z,12.10
2023-03-26T15:10:29.960Z,12.30
2023-03-26T15:13:33.768Z,11.30
2023-03-26T15:16:28.359Z,11.30
2023-03-26T15:19:36.779Z,11.00
2023-03-26T15:23:02.267Z,10.80
2023-03-26T15:26:03.874Z,10.80
2023-03-26T15:29:06.835Z,11.30
2023-03-26T15:31:51.541Z,11.10
2023-03-26T15:34:55.784Z,11.20
2023-03-26T15:38:03.754Z,11.10
2023-03-26T15:40:55.187Z,10.60
2023-03-26T15:43:23.695Z,11.20
2023-03-26T15:45:54.987Z,11.30
2023-03-26T15:48:40.504Z,11.10
2023-03-26T15:51:30.241Z,11.00
2023-03-26T15:54:00.892Z,11.30
2023-03-26T15:56:42.405Z,10.50
2023-03-26T15:59:23.385Z,10.30
2023-03-26T16:02:02.920Z,10.80
2023-03-26T16:04:51.099Z,11.00
2023-03-26T16:07:38.522Z,11.50
2023-03-26T16:10:21.777Z,11.30
2023-03-26T16:13:19.212Z,11.30
2023-03-26T16:15:51.757Z,11.20
2023-03-26T16:18:32.029Z,10.90
2023-03-26T16:21:31.811Z,11.20
2023-03-26T16:24:13.509Z,11.00
2023-03-26T16:26:48.761Z,10.80
2023-03-26T16:29:18.376Z,10.80
2023-03-26T16:32:05.718Z,11.10
2023-03-26T16:34:45.723Z,11.00
2023-03-26T16:37:43.852Z,11.20
2023-03-26T16:41:02.042Z,11.00
2023-03-26T16:43:43.647Z,11.00
2023-03-26T16:46:16.753Z,11.00
2023-03-26T16:48:50.768Z,11.30
2023-03-26T16:51:26.430Z,11.00
2023-03-26T16:53:58.253Z,11.20
2023-03-26T16:56:31.988Z,10.90
2023-03-26T16:59:02.430Z,10.70
2023-03-26T17:01:37.020Z,10.70
2023-03-26T17:04:06.424Z,10.80
2023-03-26T17:07:01.708Z,11.30
2023-03-26T17:09:38.948Z,11.00
2023-03-26T17:12:09.494Z,11.00
2023-03-26T17:14:48.896Z,10.90
2023-03-26T17:17:32.687Z,10.80
2023-03-26T17:20:04.049Z,10.80
2023-03-26T17:22:38.978Z,10.70
2023-03-26T17:25:13.686Z,10.70
2023-03-26T17:27:47.077Z,10.50
2023-03-26T17:30:32.268Z,11.00
2023-03-26T17:33:00.859Z,11.10
2023-03-26T17:35:42.959Z,11.20
2023-03-26T17:38:47.661Z,11.00
2023-03-26T17:41:17.896Z,11.30
2023-03-26T17:43:46.535Z,11.40
2023-03-26T17:46:29.847Z,11.60
2023-03-26T17:49:02.806Z,11.30
2023-03-26T17:51:49.718Z,11.10
2023-03-26T17:54:24.820Z,11.20
2023-03-26T17:56:53.675Z,11.20
2023-03-26T17:59:24.156Z,10.90
2023-03-26T18:01:55.464Z,11.00
2023-03-26T18:04:28.149Z,10.80
2023-03-26T18:07:24.527Z,11.10
2023-03-26T18:10:06.255Z,10.70
2023-03-26T18:12:52.954Z,10.80
2023-03-26T18:15:26.954Z,10.90
2023-03-26T18:17:57.873Z,10.90
2023-03-26T18:20:27.441Z,11.00
2023-03-26T18:22:55.589Z,11.10
2023-03-26T18:25:27.168Z,11.00
2023-03-26T18:27:55.500Z,11.10
2023-03-26T18:30:26.037Z,11.20
2023-03-26T18:33:00.116Z,11.20
2023-03-26T18:35:40.652Z,10.90
2023-03-26T18:38:13.852Z,10.70
2023-03-26T18:40:43.344Z,10.90
2023-03-26T18:43:22.189Z,11.00
2023-03-26T18:46:00.779Z,10.90
2023-03-26T18:48:29.405Z,11.10
2023-03-26T18:50:59.227Z,11.20
2023-03-26T18:53:37.140Z,11.20
2023-03-26T18:56:19.173Z,11.10
2023-03-26T18:58:51.428Z,11.10
2023-03-26T19:01:25.422Z,11.00
2023-03-26T19:03:57.133Z,10.90
2023-03-26T19:06:26.338Z,10.90
2023-03-26T19:08:54.485Z,10.90
2023-03-26T19:11:23.913Z,10.90
2023-03-26T19:13:59.546Z,10.70
2023-03-26T19:16:28.927Z,10.80
2023-03-26T19:18:57.042Z,10.70
2023-03-26T19:21:25.133Z,10.70
2023-03-26T19:23:53.270Z,10.60
2023-03-26T19:26:21.293Z,10.60
2023-03-26T19:28:51.905Z,10.40
2023-03-26T19:31:23.303Z,10.60
2023-03-26T19:33:56.167Z,10.30
2023-03-26T19:36:26.298Z,10.40
2023-03-26T19:38:55.131Z,10.20
2023-03-26T19:41:24.338Z,10.50
2023-03-26T19:43:55.806Z,10.50
2023-03-26T19:46:24.355Z,10.40
2023-03-26T19:48:53.367Z,10.20
2023-03-26T19:51:22.716Z,10.60
2023-03-26T19:53:55.118Z,10.20
2023-03-26T19:56:23.554Z,10.40
2023-03-26T19:58:53.201Z,10.60
2023-03-26T20:01:22.126Z,10.60
2023-03-26T20:03:51.501Z,10.60
2023-03-26T20:06:22.192Z,10.70
2023-03-26T20:08:56.172Z,10.70
2023-03-26T20:11:24.997Z,10.60
2023-03-26T20:13:54.424Z,10.80
2023-03-26T20:16:25.379Z,10.80
2023-03-26T20:18:53.901Z,10.90
2023-03-26T20:21:21.945Z,10.50
2023-03-26T20:23:53.613Z,11.00
2023-03-26T20:26:22.006Z,10.60
2023-03-26T20:28:53.387Z,10.60
2023-03-26T20:31:25.154Z,10.40
2023-03-26T20:33:54.014Z,10.60
2023-03-26T20:36:34.232Z,10.60
2023-03-26T20:39:05.614Z,10.60
2023-03-26T20:41:34.144Z,10.70
2023-03-26T20:44:03.840Z,10.40
2023-03-26T20:46:33.587Z,10.40
2023-03-26T20:49:01.736Z,10.30
2023-03-26T20:51:29.997Z,10.30
2023-03-26T20:53:58.043Z,10.30
2023-03-26T20:56:27.052Z,10.30
2023-03-26T20:59:09.761Z,10.20
2023-03-26T21:01:40.367Z,10.50
2023-03-26T21:04:08.662Z,10.70
2023-03-26T21:06:37.121Z,10.70
2023-03-26T21:09:05.856Z,10.70
2023-03-26T21:11:40.947Z,10.30
2023-03-26T21:14:10.845Z,10.20
2023-03-26T21:16:40.773Z,10.10
2023-03-26T21:19:10.233Z,10.00
2023-03-26T21:21:47.843Z,10.30
2023-03-26T21:24:20.398Z,10.30
2023-03-26T21:26:50.752Z,10.50
2023-03-26T21:29:19.187Z,10.40
2023-03-26T21:31:50.490Z,10.40
2023-03-26T21:34:20.118Z,10.50
2023-03-26T21:36:48.665Z,10.40
2023-03-26T21:39:17.102Z,10.50
2023-03-26T21:41:47.864Z,10.60
2023-03-26T21:44:16.534Z,10.40
2023-03-26T21:46:45.685Z,10.10
2023-03-26T21:49:16.772Z,10.30
2023-03-26T21:51:45.442Z,10.50
2023-03-26T21:54:22.035Z,10.50
2023-03-26T21:56:54.509Z,10.40
2023-03-26T21:59:25.087Z,10.70
2023-03-26T22:01:56.361Z,10.60
2023-03-26T22:04:27.655Z,10.60
2023-03-26T22:06:56.770Z,10.30
2023-03-26T22:09:33.972Z,10.30
2023-03-26T22:12:04.212Z,10.60
2023-03-26T22:14:33.667Z,10.40
2023-03-26T22:17:01.745Z,10.30
2023-03-26T22:19:31.268Z,10.10
2023-03-26T22:22:00.212Z,10.10
2023-03-26T22:24:28.508Z,10.00
2023-03-26T22:26:56.635Z,10.30
2023-03-26T22:29:24.759Z,10.40
2023-03-26T22:31:52.897Z,10.40
2023-03-26T22:34:21.299Z,10.60
2023-03-26T22:36:50.740Z,10.40
2023-03-26T22:39:18.899Z,10.10
2023-03-26T22:41:46.996Z,9.90
2023-03-26T22:44:20.165Z,10.40
2023-03-26T22:46:51.458Z,10.50
2023-03-26T22:49:19.829Z,10.50
2023-03-26T22:51:47.885Z,10.50
2023-03-26T22:54:17.348Z,10.30
2023-03-26T22:56:45.859Z,10.30
2023-03-26T22:59:14.282Z,10.40
2023-03-26T23:01:44.363Z,10.30
2023-03-26T23:04:13.000Z,10.50
2023-03-26T23:06:59.927Z,10.50
2023-03-26T23:09:29.589Z,10.30
2023-03-26T23:11:57.767Z,10.10
2023-03-26T23:14:25.786Z,10.40
2023-03-26T23:16:53.866Z,10.30
2023-03-26T23:19:22.049Z,10.20
2023-03-26T23:21:50.165Z,9.70
2023-03-26T23:24:18.516Z,10.20
2023-03-26T23:26:50.976Z,10.00
2023-03-26T23:29:19.571Z,9.90
2023-03-26T23:31:47.786Z,9.90
2023-03-26T23:34:17.193Z,9.70
2023-03-26T23:36:45.770Z,10.00
2023-03-26T23:39:13.993Z,10.00
2023-03-26T23:41:42.015Z,9.80
2023-03-26T23:44:13.699Z,10.00
2023-03-26T23:46:42.724Z,9.70
2023-03-26T23:49:12.208Z,9.70
2023-03-26T23:51:40.238Z,10.00
2023-03-26T23:54:08.839Z,10.30
2023-03-26T23:56:36.974Z,9.90
2023-03-26T23:59:05.095Z,9.70
